Webcam 1 more information Webcam 1


Webcam 2 more information Webcam 2


avvertimento per Neve / Ghiaccio more information rain snow radar


altri nostri siti meteo:

TortoretometeolidoSito sul meteo

TortoretometeolidoSito sul meteo

Pomeziameteo 1Sito sul meteo

Pomeziameteo DashboardSito sul meteo

Caput FrigorisSito sul meteo

BarcellonameteoSito sul meteo

MeteoipassiSito sul meteo

ViterbometeoSito sul meteo

CastelnuovovomanometeoSito sul meteo



Neve/Ghiaccio Inizio validita dal: 22-01-2019 01:00 Fino: 23-01-2019 00:59 Allerta per: Neve/Ghiaccio Livello: Giallo info button

Report METAR

   
LIBP - Pescara
Dati ricevuti: 22-01-2019 03:50
Pioggia leggera, Coperto  
Pioggia leggera, Coperto  
   Vento: S 7.4 km/h
Vento: S 7.4 km/h
Temperatura: 6°C
Temperatura Vento: 4°C
P.to Rugiada: 4°C
Umidita: 87%
Barometro: 1009 hPa
Nuvole: Coperto
Visibilita: oltre 10 km
dettagli cloud: Coperto 1500 ft
LIBP 220250Z AUTO 21004KT 9999 -RA OVC015/// 06/04 Q1009
LIRZ - Perugia
Dati ricevuti: 22-01-2019 03:50
Coperto  
Coperto  
   Vento: Nord 20.4 km/h
Vento: Nord 20.4 km/h
Temperatura: 5°C
Temperatura Vento: 1°C
P.to Rugiada: 1°C
Umidita: 76%
Barometro: 1007 hPa
Nuvole: Coperto
Visibilita: oltre 10 km
dettagli cloud: Coperto 5400 ft
LIRZ 220250Z AUTO 36011KT 9999 OVC054/// 05/01 Q1007
LIQN - Rieti
Dati ricevuti: 21-01-2019 17:50
DATI Obsoleti
Parzialmente nuvoloso  
Parzialmente nuvoloso  
   Vento: Variabile 5.6 km/h
Vento: Variabile 5.6 km/h
Temperatura: 6°C
Temperatura Vento: 5°C
P.to Rugiada: 5°C
Umidita: 93%
Barometro: 1009 hPa
Nuvole: Parzialmente nuvoloso
Visibilita: 9 km
dettagli cloud: Parzialmente nuvoloso 2000 ft
LIQN 211650Z VRB03KT 9000 SCT020 06/05 Q1009
LIPY - Falconara
Dati ricevuti: 21-01-2019 23:50
DATI Obsoleti
Pioggia, Molto nuvoloso  
Pioggia, Molto nuvoloso  
   Vento: NO 18.5 km/h
Vento: NO 18.5 km/h
Temperatura: 4°C
Temperatura Vento: 0°C
P.to Rugiada: 4°C
Umidita: 100%
Barometro: 1013 hPa
Nuvole: Molto nuvoloso
Visibilita: 5 km
dettagli cloud: Molto nuvoloso 1000 ft
LIPY 212250Z 31010KT 5000 RA BKN010 04/04 Q1013
  

Script sviluppato da  Saratoga-weather.org Adattato per il modello da  Weerstation Leuven

Potete trovare le nostre info meteo anche a:

European Weather Network

Weather Underground

AWEKAS

Citizen Weather Observer Program (CWOP)

HAMweather, WeatherForYou, PWS Weather

Strumentazione usata:

Stazione meteo
Davis VP2

Programma gestore dati meteo
WVIEW

Server per i dati meteo
My Computer

Provider
My provider

Davis VP2

WVIEW

My Computer

My provider